Time;durP1;ratioP1;P1;durP2;ratioP2;P2;SDS_P1;SDS_P2;PMS_P1;PMS_P2;Temp;Humidity;BMP_temperature;BMP_pressure;BME280_temperature;BME280_humidity;BME280_pressure;Samples;Min_cycle;Max_cycle;Signal;HPM_P1;HPM_P2
2022/11/30 00:01:35;;;;;;;10.20;4.40;;;7.90;95.50;;;;;;6210097;23;20179;-78
2022/11/30 00:04:04;;;;;;;9.23;4.80;;;7.90;95.50;;;;;;6210231;23;20544;-80
2022/11/30 00:06:32;;;;;;;10.47;4.70;;;7.90;95.50;;;;;;6213114;23;20167;-78
2022/11/30 00:09:00;;;;;;;13.57;5.10;;;7.90;95.60;;;;;;6211592;23;20490;-80
2022/11/30 00:11:29;;;;;;;11.80;5.40;;;7.90;95.50;;;;;;6213611;23;20171;-80
2022/11/30 00:13:58;;;;;;;13.47;5.80;;;7.90;95.40;;;;;;6211269;23;20171;-80
2022/11/30 00:16:27;;;;;;;11.70;4.37;;;7.90;95.50;;;;;;6212353;23;20241;-77
2022/11/30 00:18:56;;;;;;;10.23;5.17;;;8.00;95.50;;;;;;6209745;23;20195;-82
2022/11/30 00:21:24;;;;;;;12.73;5.70;;;8.00;95.40;;;;;;6210492;23;20538;-78
2022/11/30 00:23:52;;;;;;;10.63;5.20;;;8.00;95.40;;;;;;6211116;23;20190;-79
2022/11/30 00:26:21;;;;;;;9.40;4.70;;;8.00;95.30;;;;;;6210237;23;20668;-81
2022/11/30 00:28:50;;;;;;;10.10;4.80;;;8.00;95.60;;;;;;6211494;23;20171;-81
2022/11/30 00:31:18;;;;;;;8.73;4.53;;;8.00;95.20;;;;;;6211608;23;20241;-80
2022/11/30 00:33:49;;;;;;;11.65;5.38;;;7.90;95.10;;;;;;6211621;23;20415;-79
2022/11/30 00:36:19;;;;;;;10.03;4.90;;;7.90;95.40;;;;;;6210752;23;20616;-76
2022/11/30 00:38:49;;;;;;;10.50;4.47;;;7.90;95.30;;;;;;6209383;23;20241;-79
2022/11/30 00:41:18;;;;;;;9.40;4.47;;;7.90;95.20;;;;;;6211651;23;20179;-79
2022/11/30 00:43:46;;;;;;;9.33;4.90;;;8.00;95.20;;;;;;6210562;23;20175;-82
2022/11/30 00:46:17;;;;;;;11.47;5.70;;;8.00;95.10;;;;;;6211145;23;20680;-80
2022/11/30 00:48:46;;;;;;;11.67;6.20;;;8.00;95.30;;;;;;6131112;23;20175;-79
2022/11/30 00:51:16;;;;;;;10.53;4.93;;;8.00;95.10;;;;;;6211760;23;20178;-79
2022/11/30 00:53:46;;;;;;;7.87;4.70;;;7.90;95.00;;;;;;6210169;23;20167;-80
2022/11/30 00:56:14;;;;;;;11.47;5.23;;;7.90;95.20;;;;;;6208141;23;20175;-80
2022/11/30 00:58:43;;;;;;;9.65;5.20;;;7.90;95.10;;;;;;6209219;23;20477;-79
2022/11/30 01:01:11;;;;;;;10.30;5.50;;;7.90;95.10;;;;;;6211461;23;20565;-79
2022/11/30 01:03:40;;;;;;;10.57;5.53;;;7.90;95.10;;;;;;6211423;23;20251;-79
2022/11/30 01:06:09;;;;;;;8.37;4.67;;;7.90;95.00;;;;;;6213190;23;20180;-79
2022/11/30 01:08:39;;;;;;;11.43;4.97;;;7.90;95.30;;;;;;6211653;23;20225;-79
2022/11/30 01:11:11;;;;;;;11.27;5.55;;;7.90;94.90;;;;;;6212207;23;20382;-76
2022/11/30 01:13:39;;;;;;;10.23;5.37;;;7.90;94.80;;;;;;6209832;23;20217;-78
2022/11/30 01:16:14;;;;;;;14.53;5.73;;;7.90;94.80;;;;;;6212008;23;20175;-76
2022/11/30 01:18:43;;;;;;;13.03;4.80;;;7.90;94.80;;;;;;6210010;23;20193;-79
2022/11/30 01:21:13;;;;;;;11.03;5.13;;;7.90;94.80;;;;;;6211269;23;20638;-80
2022/11/30 01:23:43;;;;;;;11.87;5.13;;;7.90;94.80;;;;;;6211409;23;20160;-79
2022/11/30 01:26:12;;;;;;;11.57;5.00;;;7.90;94.70;;;;;;6213096;23;20199;-79
2022/11/30 01:28:42;;;;;;;11.50;5.20;;;7.90;94.70;;;;;;6212072;23;20175;-78
2022/11/30 01:31:13;;;;;;;12.23;5.27;;;7.90;94.70;;;;;;6212535;23;20187;-79
2022/11/30 01:33:43;;;;;;;9.83;5.20;;;7.90;94.70;;;;;;6212363;23;20159;-78
2022/11/30 01:36:13;;;;;;;10.20;5.07;;;7.90;94.60;;;;;;6211858;23;20620;-77
2022/11/30 01:38:44;;;;;;;12.87;4.83;;;7.90;94.70;;;;;;6211557;23;20183;-77
2022/11/30 01:41:14;;;;;;;12.93;5.67;;;7.90;94.70;;;;;;6212655;23;20604;-78
2022/11/30 01:43:45;;;;;;;11.27;4.87;;;7.90;94.60;;;;;;6212822;23;20214;-79
2022/11/30 01:46:36;;;;;;;12.20;5.30;;;7.90;94.70;;;;;;6212109;23;20168;-78
2022/11/30 01:49:16;;;;;;;10.33;5.40;;;7.90;94.70;;;;;;6212345;23;20201;-80
2022/11/30 01:51:49;;;;;;;14.03;6.07;;;7.80;94.60;;;;;;6210959;23;20168;-78
2022/11/30 01:54:22;;;;;;;11.47;5.57;;;7.80;94.70;;;;;;6211914;23;20503;-78
2022/11/30 01:56:55;;;;;;;10.80;4.40;;;7.80;94.70;;;;;;6209637;23;20249;-79
2022/11/30 01:59:26;;;;;;;11.60;5.20;;;7.90;94.70;;;;;;6210970;23;20721;-79
2022/11/30 02:01:55;;;;;;;11.80;5.00;;;7.90;94.70;;;;;;6212453;23;20167;-80
2022/11/30 02:04:27;;;;;;;12.83;5.43;;;7.90;94.70;;;;;;6214301;23;20628;-81
2022/11/30 02:06:57;;;;;;;8.90;4.83;;;7.90;94.60;;;;;;6212743;23;20539;-80
2022/11/30 02:09:28;;;;;;;11.17;4.60;;;7.80;94.60;;;;;;6212102;23;20171;-78
2022/11/30 02:11:57;;;;;;;9.00;4.43;;;7.90;94.70;;;;;;6214179;23;20548;-79
2022/11/30 02:14:33;;;;;;;8.97;4.47;;;7.80;94.50;;;;;;6213341;23;20191;-78
2022/11/30 02:17:11;;;;;;;7.47;3.80;;;7.80;94.70;;;;;;6214536;23;20229;-79
2022/11/30 02:20:14;;;;;;;7.57;4.23;;;7.70;94.20;;;;;;6212370;23;20194;-79
2022/11/30 02:23:01;;;;;;;10.20;4.67;;;7.70;94.10;;;;;;6159689;23;20178;-81
2022/11/30 02:25:40;;;;;;;10.97;3.90;;;7.60;94.00;;;;;;6212925;23;20249;-78
2022/11/30 02:28:24;;;;;;;8.50;4.10;;;7.60;94.00;;;;;;6213194;23;20170;-82
2022/11/30 02:30:55;;;;;;;7.53;3.60;;;7.60;93.90;;;;;;6210860;23;20669;-76
2022/11/30 02:33:27;;;;;;;5.50;3.30;;;7.60;93.90;;;;;;6211380;23;20238;-80
2022/11/30 02:35:58;;;;;;;7.73;3.53;;;7.60;93.90;;;;;;6214454;23;20163;-79
2022/11/30 02:38:28;;;;;;;7.00;3.93;;;7.50;93.70;;;;;;6213250;23;20206;-77
2022/11/30 02:40:56;;;;;;;6.77;3.77;;;7.50;93.70;;;;;;6213286;23;20175;-80
2022/11/30 02:43:26;;;;;;;7.00;3.70;;;7.50;93.60;;;;;;6212394;23;20477;-80
2022/11/30 02:46:03;;;;;;;6.20;2.80;;;7.50;93.70;;;;;;6213338;23;20159;-79
2022/11/30 02:48:40;;;;;;;6.77;2.90;;;7.50;93.80;;;;;;6213101;23;20159;-81
2022/11/30 02:51:12;;;;;;;8.90;4.13;;;7.40;93.80;;;;;;6212475;23;20211;-80
2022/11/30 02:53:42;;;;;;;9.00;4.00;;;7.40;93.70;;;;;;6212795;23;20159;-78
2022/11/30 02:56:10;;;;;;;6.13;2.67;;;7.40;93.80;;;;;;6212919;23;20225;-76
2022/11/30 02:58:39;;;;;;;5.53;2.73;;;7.40;93.80;;;;;;6209335;23;20503;-80
2022/11/30 03:01:09;;;;;;;7.23;3.80;;;7.40;93.90;;;;;;6210004;23;20650;-80
2022/11/30 03:03:37;;;;;;;8.60;3.70;;;7.40;93.90;;;;;;6212285;23;20213;-78
2022/11/30 03:06:07;;;;;;;6.83;3.57;;;7.40;93.90;;;;;;6215129;23;20182;-78
2022/11/30 03:08:35;;;;;;;5.17;2.90;;;7.40;93.90;;;;;;6211151;23;20233;-81
2022/11/30 03:11:04;;;;;;;7.10;3.47;;;7.40;93.90;;;;;;6212653;23;20683;-81
2022/11/30 03:13:32;;;;;;;7.63;3.00;;;7.40;93.90;;;;;;6215370;23;20179;-79
2022/11/30 03:16:06;;;;;;;8.73;3.53;;;7.40;94.00;;;;;;6215311;23;20183;-80
2022/11/30 03:18:36;;;;;;;6.73;3.30;;;7.50;94.00;;;;;;6212822;23;20619;-81
2022/11/30 03:21:06;;;;;;;8.97;4.23;;;7.50;94.10;;;;;;6213539;23;20205;-80
2022/11/30 03:23:34;;;;;;;9.57;3.77;;;7.50;94.10;;;;;;6214346;23;20514;-81
2022/11/30 03:26:03;;;;;;;7.60;3.50;;;7.50;94.10;;;;;;6213294;23;20202;-78
2022/11/30 03:28:32;;;;;;;10.07;4.63;;;7.50;94.20;;;;;;6213884;23;20182;-82
2022/11/30 03:31:00;;;;;;;7.37;3.87;;;7.50;94.20;;;;;;6215517;23;20171;-81
2022/11/30 03:33:29;;;;;;;7.10;3.37;;;7.50;94.20;;;;;;6214320;23;20178;-80
2022/11/30 03:36:04;;;;;;;10.03;4.20;;;7.60;94.20;;;;;;6214074;23;20175;-81
2022/11/30 03:38:33;;;;;;;10.73;4.20;;;7.60;94.30;;;;;;6215411;23;20534;-80
2022/11/30 03:41:02;;;;;;;9.03;4.40;;;7.60;94.20;;;;;;6213469;23;20190;-82
2022/11/30 03:43:31;;;;;;;7.53;4.00;;;7.60;94.20;;;;;;6213495;23;20551;-79
2022/11/30 03:45:59;;;;;;;5.60;3.30;;;7.50;94.20;;;;;;6214365;23;20239;-79
2022/11/30 03:48:28;;;;;;;7.57;3.93;;;7.60;94.20;;;;;;6214395;23;20191;-79
2022/11/30 03:50:56;;;;;;;8.27;3.83;;;7.60;94.20;;;;;;6214059;23;20690;-82
2022/11/30 03:53:26;;;;;;;7.97;3.90;;;7.60;94.10;;;;;;6211907;23;20210;-80
2022/11/30 03:55:56;;;;;;;6.27;3.17;;;7.60;94.10;;;;;;6213519;23;20214;-81
2022/11/30 03:58:25;;;;;;;9.77;4.23;;;7.60;94.10;;;;;;6212092;23;20234;-81
2022/11/30 04:01:01;;;;;;;8.37;4.10;;;7.60;94.10;;;;;;6212687;23;20226;-77
2022/11/30 04:03:30;;;;;;;8.40;4.00;;;7.60;94.20;;;;;;6214214;23;20163;-79
2022/11/30 04:05:58;;;;;;;7.97;3.87;;;7.60;94.20;;;;;;6212342;23;20186;-81
2022/11/30 04:08:28;;;;;;;10.43;4.27;;;7.50;94.20;;;;;;6213907;23;20175;-79
2022/11/30 04:10:59;;;;;;;7.87;4.13;;;7.50;94.20;;;;;;6214912;23;20241;-80
2022/11/30 04:13:28;;;;;;;10.33;4.40;;;7.50;94.20;;;;;;6209973;23;20489;-77
2022/11/30 04:15:56;;;;;;;7.07;3.60;;;7.50;94.20;;;;;;6212967;23;20178;-81
2022/11/30 04:18:27;;;;;;;9.20;4.50;;;7.50;94.20;;;;;;6213158;23;20186;-82
2022/11/30 04:20:57;;;;;;;10.07;5.00;;;7.50;94.30;;;;;;6209051;23;20176;-76
2022/11/30 04:23:29;;;;;;;8.63;4.00;;;7.50;94.30;;;;;;6211353;23;20171;-81
2022/11/30 04:25:58;;;;;;;9.00;4.13;;;7.60;94.30;;;;;;6213787;23;20262;-77
2022/11/30 04:28:26;;;;;;;8.80;4.37;;;7.50;94.40;;;;;;6210586;23;20198;-81
2022/11/30 04:30:55;;;;;;;7.23;4.53;;;7.40;94.50;;;;;;6212138;23;20209;-79
2022/11/30 04:33:23;;;;;;;9.93;4.07;;;7.50;94.50;;;;;;6210115;23;20179;-80
2022/11/30 04:35:54;;;;;;;11.33;4.50;;;7.50;94.60;;;;;;6211945;23;20261;-79
2022/11/30 04:38:23;;;;;;;7.10;4.07;;;7.50;94.60;;;;;;6213674;23;20495;-81
2022/11/30 04:40:54;;;;;;;7.47;4.23;;;7.50;94.60;;;;;;6213620;23;20230;-78
2022/11/30 04:43:23;;;;;;;8.93;4.70;;;7.50;94.60;;;;;;6212505;23;20383;-79
2022/11/30 04:45:52;;;;;;;8.40;4.03;;;7.50;94.60;;;;;;6210606;23;20225;-78
2022/11/30 04:48:20;;;;;;;8.57;3.93;;;7.50;94.40;;;;;;6210220;23;20171;-80
2022/11/30 04:50:48;;;;;;;9.07;3.50;;;7.50;94.30;;;;;;6213919;23;20171;-79
2022/11/30 04:53:16;;;;;;;6.40;3.07;;;7.50;94.10;;;;;;6213569;23;20482;-80
2022/11/30 04:55:45;;;;;;;7.10;3.43;;;7.40;94.40;;;;;;6213277;23;20179;-76
2022/11/30 04:58:14;;;;;;;8.47;3.77;;;7.40;93.90;;;;;;6213612;23;20238;-78
2022/11/30 05:00:43;;;;;;;9.13;3.70;;;7.40;94.00;;;;;;6213504;23;20253;-78
2022/11/30 05:03:11;;;;;;;8.90;4.70;;;7.40;94.00;;;;;;6213561;23;20226;-78
2022/11/30 05:05:39;;;;;;;7.37;3.10;;;7.30;93.90;;;;;;6213242;23;20221;-78
2022/11/30 05:08:09;;;;;;;7.63;4.17;;;7.30;93.90;;;;;;6214209;23;20203;-77
2022/11/30 05:10:37;;;;;;;7.07;3.50;;;7.30;93.90;;;;;;6211982;23;20743;-80
2022/11/30 05:13:05;;;;;;;5.87;2.87;;;7.20;93.90;;;;;;6213111;23;20230;-78
2022/11/30 05:15:35;;;;;;;8.20;3.23;;;7.20;94.00;;;;;;6212066;23;20210;-78
2022/11/30 05:18:03;;;;;;;4.83;2.87;;;7.20;93.90;;;;;;6211780;23;20182;-76
2022/11/30 05:20:31;;;;;;;7.87;3.27;;;7.20;93.90;;;;;;6212440;23;20655;-80
2022/11/30 05:23:00;;;;;;;6.25;2.97;;;7.20;93.90;;;;;;6210647;23;21167;-79
2022/11/30 05:25:28;;;;;;;5.87;2.80;;;7.20;94.00;;;;;;6213431;23;20203;-77
2022/11/30 05:27:56;;;;;;;5.70;2.80;;;7.20;93.90;;;;;;6211749;23;20631;-77
2022/11/30 05:30:24;;;;;;;8.77;3.75;;;7.20;93.90;;;;;;6212075;23;20450;-79
2022/11/30 05:32:54;;;;;;;8.07;3.03;;;7.20;93.90;;;;;;6214144;23;20175;-78
2022/11/30 05:35:23;;;;;;;6.03;3.27;;;7.20;94.10;;;;;;6215325;23;20537;-80
2022/11/30 05:37:51;;;;;;;7.60;3.27;;;7.10;94.30;;;;;;6214505;23;20632;-80
2022/11/30 05:40:19;;;;;;;5.63;2.80;;;7.10;94.30;;;;;;6213725;23;20195;-80
2022/11/30 05:42:47;;;;;;;8.23;2.97;;;7.10;94.30;;;;;;6214668;23;20177;-79
2022/11/30 05:45:16;;;;;;;5.47;3.00;;;7.20;94.20;;;;;;6213110;23;20183;-78
2022/11/30 05:47:44;;;;;;;4.47;2.27;;;7.10;94.10;;;;;;6215070;23;20636;-77
2022/11/30 05:50:14;;;;;;;8.23;2.60;;;7.10;94.20;;;;;;6212116;23;20179;-79
2022/11/30 05:52:42;;;;;;;6.93;2.17;;;7.10;94.20;;;;;;6211946;23;20225;-78
2022/11/30 05:55:11;;;;;;;5.67;2.50;;;7.10;94.10;;;;;;6213807;23;20179;-79
2022/11/30 05:57:40;;;;;;;6.30;2.40;;;7.10;94.20;;;;;;6214555;23;20182;-79
2022/11/30 06:00:10;;;;;;;4.70;1.73;;;7.10;94.20;;;;;;6135291;23;20209;-78
2022/11/30 06:02:38;;;;;;;6.53;2.30;;;7.10;94.10;;;;;;6215143;23;20621;-79
2022/11/30 06:05:07;;;;;;;8.00;2.50;;;7.20;94.10;;;;;;6215231;23;20178;-78
2022/11/30 06:07:37;;;;;;;4.47;2.30;;;7.10;93.80;;;;;;6212498;23;20179;-77
2022/11/30 06:10:07;;;;;;;6.87;2.77;;;7.10;93.70;;;;;;6211887;23;20175;-81
2022/11/30 06:12:35;;;;;;;7.13;2.57;;;7.20;93.70;;;;;;6211840;23;20225;-79
2022/11/30 06:15:06;;;;;;;5.30;2.17;;;7.10;93.70;;;;;;6209940;23;20171;-76
2022/11/30 06:17:36;;;;;;;3.87;2.00;;;7.20;93.80;;;;;;6212454;23;20237;-77
2022/11/30 06:20:05;;;;;;;5.93;2.80;;;7.20;93.80;;;;;;6215194;23;20179;-76
2022/11/30 06:22:34;;;;;;;8.77;3.70;;;7.20;93.70;;;;;;6213697;23;20187;-74
2022/11/30 06:25:05;;;;;;;6.67;2.97;;;7.20;93.70;;;;;;6211816;23;20534;-77
2022/11/30 06:27:33;;;;;;;6.30;2.53;;;7.30;93.70;;;;;;6213226;23;20163;-79
2022/11/30 06:30:01;;;;;;;6.07;2.70;;;7.20;93.60;;;;;;6211261;23;20174;-76
2022/11/30 06:32:31;;;;;;;7.07;2.90;;;7.30;93.60;;;;;;6215055;23;20218;-77
2022/11/30 06:34:59;;;;;;;5.60;2.40;;;7.30;93.40;;;;;;6214126;23;20206;-77
2022/11/30 06:37:27;;;;;;;4.73;2.73;;;7.30;93.50;;;;;;6214171;23;20182;-78
2022/11/30 06:39:56;;;;;;;4.67;2.40;;;7.30;93.30;;;;;;6211725;23;20684;-76
2022/11/30 06:42:35;;;;;;;5.77;2.87;;;7.40;93.30;;;;;;6214808;23;20175;-78
2022/11/30 06:45:04;;;;;;;5.10;2.60;;;7.30;93.20;;;;;;6214366;23;20163;-79
2022/11/30 06:47:33;;;;;;;6.67;3.00;;;7.30;93.20;;;;;;6215508;23;20182;-78
2022/11/30 06:50:01;;;;;;;5.63;2.70;;;7.30;93.10;;;;;;6213833;23;20229;-79
2022/11/30 06:52:31;;;;;;;5.63;2.73;;;7.40;93.20;;;;;;6216198;23;20171;-78
2022/11/30 06:54:59;;;;;;;5.23;2.97;;;7.40;93.10;;;;;;6214240;23;20175;-79
2022/11/30 06:57:28;;;;;;;5.83;2.97;;;7.50;93.20;;;;;;6213376;23;20197;-78
2022/11/30 06:59:58;;;;;;;8.57;2.70;;;7.40;93.00;;;;;;6215079;23;20179;-77
2022/11/30 07:02:26;;;;;;;8.67;2.90;;;7.50;93.00;;;;;;6213259;23;20205;-78
2022/11/30 07:04:54;;;;;;;6.63;2.80;;;7.50;93.00;;;;;;6214888;23;20237;-79
2022/11/30 07:07:23;;;;;;;7.70;3.57;;;7.60;93.00;;;;;;6215761;23;20225;-77
2022/11/30 07:09:51;;;;;;;7.07;3.10;;;7.60;93.00;;;;;;6213582;23;20182;-77
2022/11/30 07:12:20;;;;;;;5.30;2.70;;;7.60;92.90;;;;;;6214510;23;20206;-79
2022/11/30 07:14:51;;;;;;;5.03;3.07;;;7.60;92.70;;;;;;6215414;23;20639;-78
2022/11/30 07:17:20;;;;;;;7.90;3.00;;;7.70;92.80;;;;;;6214963;23;20163;-79
2022/11/30 07:19:49;;;;;;;6.17;3.10;;;7.70;92.80;;;;;;6215854;23;20155;-78
2022/11/30 07:22:17;;;;;;;8.30;3.27;;;7.70;92.80;;;;;;6215934;23;20249;-77
2022/11/30 07:27:31;;;;;;;6.80;3.40;;;7.80;92.60;;;;;;6215775;23;20694;-77
2022/11/30 07:29:59;;;;;;;7.77;3.93;;;7.70;92.50;;;;;;6215386;23;20175;-80
2022/11/30 07:32:29;;;;;;;11.33;5.40;;;7.70;92.50;;;;;;6213237;23;20551;-80
2022/11/30 07:34:57;;;;;;;10.50;5.57;;;7.80;92.60;;;;;;6215930;23;20176;-80
2022/11/30 07:37:27;;;;;;;8.40;4.33;;;7.80;92.60;;;;;;6215223;23;20210;-77
2022/11/30 07:39:55;;;;;;;6.00;3.10;;;7.80;92.60;;;;;;6214459;23;20175;-80
2022/11/30 07:42:23;;;;;;;7.73;4.13;;;7.80;92.50;;;;;;6213933;23;20191;-76
2022/11/30 07:44:51;;;;;;;7.10;3.47;;;7.80;92.50;;;;;;6215985;23;20179;-80
2022/11/30 07:47:26;;;;;;;5.17;2.90;;;7.80;92.40;;;;;;6215153;23;20169;-81
2022/11/30 07:49:56;;;;;;;8.27;3.90;;;7.80;92.40;;;;;;6214659;23;20174;-79
2022/11/30 07:52:24;;;;;;;6.47;3.37;;;7.80;92.50;;;;;;6215073;23;20222;-78
2022/11/30 07:54:52;;;;;;;7.17;3.10;;;7.80;92.40;;;;;;6215816;23;20508;-77
2022/11/30 07:57:21;;;;;;;7.47;3.40;;;7.80;92.30;;;;;;6214738;23;20229;-77
2022/11/30 07:59:49;;;;;;;9.03;3.57;;;7.80;92.30;;;;;;6213300;23;20160;-79
2022/11/30 08:02:17;;;;;;;8.07;3.57;;;7.90;92.40;;;;;;6214435;23;20217;-76
2022/11/30 08:04:46;;;;;;;8.90;3.93;;;7.80;92.40;;;;;;6213489;23;20557;-82
2022/11/30 08:07:16;;;;;;;7.33;3.63;;;7.90;92.30;;;;;;6213663;23;20225;-81
2022/11/30 08:09:45;;;;;;;8.97;4.10;;;7.90;92.30;;;;;;6214103;23;20194;-80
2022/11/30 08:12:13;;;;;;;6.53;3.47;;;7.90;92.20;;;;;;6213659;23;20543;-77
2022/11/30 08:14:41;;;;;;;8.57;3.63;;;7.80;92.30;;;;;;6214655;23;20258;-79
2022/11/30 08:17:30;;;;;;;7.07;3.47;;;7.80;92.20;;;;;;6212532;23;20173;-75
2022/11/30 08:19:58;;;;;;;7.87;4.30;;;7.70;92.30;;;;;;6214053;23;20160;-77
2022/11/30 08:22:28;;;;;;;9.50;4.35;;;7.70;92.30;;;;;;6212812;23;20435;-79
2022/11/30 08:24:56;;;;;;;7.70;4.03;;;7.70;92.60;;;;;;6211973;23;20203;-78
2022/11/30 08:27:24;;;;;;;9.43;4.57;;;7.70;92.60;;;;;;6213199;23;20175;-77
2022/11/30 08:29:53;;;;;;;8.80;4.40;;;7.70;92.60;;;;;;6214441;23;20194;-78
2022/11/30 08:32:21;;;;;;;6.70;3.83;;;7.70;92.70;;;;;;6211000;23;20171;-80
2022/11/30 08:34:49;;;;;;;6.13;3.30;;;7.70;92.60;;;;;;6213403;23;20491;-77
2022/11/30 08:37:18;;;;;;;7.00;3.30;;;7.70;92.60;;;;;;6210825;23;20524;-76
2022/11/30 08:39:47;;;;;;;6.47;3.50;;;7.80;92.60;;;;;;6209960;23;20640;-78
2022/11/30 08:42:16;;;;;;;8.57;3.17;;;7.80;92.30;;;;;;6213203;23;20218;-81
2022/11/30 08:44:44;;;;;;;5.73;2.90;;;7.80;92.30;;;;;;6214105;23;20218;-79
2022/11/30 08:47:12;;;;;;;5.60;3.03;;;7.80;92.10;;;;;;6215582;23;20175;-79
2022/11/30 08:49:41;;;;;;;5.43;2.80;;;7.80;92.20;;;;;;6214253;23;20175;-77
2022/11/30 08:52:09;;;;;;;5.40;3.00;;;7.80;92.10;;;;;;6213527;23;20551;-79
2022/11/30 08:54:48;;;;;;;4.27;2.50;;;7.80;92.10;;;;;;6214916;23;20695;-78
2022/11/30 08:57:18;;;;;;;4.27;2.27;;;7.80;91.90;;;;;;6214421;23;20163;-79
2022/11/30 08:59:47;;;;;;;7.30;2.70;;;7.90;92.00;;;;;;6212182;23;20175;-80
2022/11/30 09:02:17;;;;;;;5.27;2.90;;;7.90;92.10;;;;;;6214374;23;20214;-81
2022/11/30 09:04:49;;;;;;;5.03;2.77;;;8.00;92.20;;;;;;6214144;23;20167;-81
2022/11/30 09:07:18;;;;;;;5.33;3.00;;;8.10;92.20;;;;;;6213891;23;20163;-82
2022/11/30 09:09:48;;;;;;;5.03;2.70;;;8.10;92.00;;;;;;6212897;23;20156;-79
2022/11/30 09:12:17;;;;;;;5.07;2.87;;;8.10;92.00;;;;;;6212205;23;20233;-78
2022/11/30 09:14:45;;;;;;;5.03;2.60;;;8.20;92.00;;;;;;6214579;23;20233;-80
2022/11/30 09:17:19;;;;;;;5.00;2.50;;;8.20;91.80;;;;;;6214267;23;20496;-81
2022/11/30 09:19:47;;;;;;;4.60;2.30;;;8.20;91.80;;;;;;6211241;23;20171;-78
2022/11/30 09:22:17;;;;;;;3.63;1.93;;;8.20;91.80;;;;;;6213317;23;20187;-81
2022/11/30 09:24:45;;;;;;;4.03;2.33;;;8.20;91.40;;;;;;6212686;23;20175;-80
2022/11/30 09:27:15;;;;;;;5.67;2.40;;;8.20;91.50;;;;;;6212943;23;20187;-80
2022/11/30 09:29:44;;;;;;;4.30;2.40;;;8.30;91.40;;;;;;6213077;23;20518;-78
2022/11/30 09:32:12;;;;;;;5.80;2.80;;;8.30;91.40;;;;;;6213818;23;20176;-78
2022/11/30 09:34:40;;;;;;;5.33;3.30;;;8.30;91.20;;;;;;6212398;23;20206;-79
2022/11/30 09:37:08;;;;;;;9.57;3.87;;;8.30;91.20;;;;;;6211362;23;20186;-80
2022/11/30 09:39:37;;;;;;;5.30;2.60;;;8.30;91.10;;;;;;6213112;23;20182;-77
2022/11/30 09:42:28;;;;;;;5.23;2.67;;;8.30;91.20;;;;;;6205973;23;20225;-78
2022/11/30 09:45:03;;;;;;;7.37;3.43;;;8.30;91.20;;;;;;6211772;23;20219;-80
2022/11/30 09:47:55;;;;;;;5.33;2.73;;;8.30;91.30;;;;;;6209630;23;20592;-78
2022/11/30 09:50:26;;;;;;;5.27;2.67;;;8.40;91.40;;;;;;6211780;23;20159;-78
2022/11/30 09:52:57;;;;;;;4.93;2.40;;;8.50;91.20;;;;;;6209500;23;20159;-81
2022/11/30 09:55:30;;;;;;;6.23;3.20;;;8.40;91.00;;;;;;6212531;23;20198;-77
2022/11/30 09:58:03;;;;;;;7.47;2.47;;;8.40;90.60;;;;;;6209967;23;20163;-79
2022/11/30 10:00:33;;;;;;;4.47;2.37;;;8.40;90.60;;;;;;6211770;23;20608;-76
2022/11/30 10:03:04;;;;;;;4.80;2.30;;;8.40;90.50;;;;;;6209519;23;20195;-78
2022/11/30 10:05:45;;;;;;;5.70;2.20;;;8.40;90.40;;;;;;6210958;23;20672;-77
2022/11/30 10:08:28;;;;;;;4.47;2.13;;;8.30;90.50;;;;;;6210316;23;20213;-77
2022/11/30 10:11:18;;;;;;;4.97;2.37;;;8.40;90.40;;;;;;6211564;23;20469;-78
2022/11/30 10:13:57;;;;;;;4.60;2.30;;;8.30;90.30;;;;;;6210716;23;20667;-80
2022/11/30 10:16:36;;;;;;;6.33;2.47;;;8.20;90.40;;;;;;6208797;23;20155;-77
2022/11/30 10:19:16;;;;;;;5.37;2.53;;;8.30;90.50;;;;;;6211772;23;20209;-78
2022/11/30 10:21:58;;;;;;;4.70;2.63;;;8.30;90.50;;;;;;6208944;23;20225;-79
2022/11/30 10:24:35;;;;;;;4.33;2.10;;;8.30;90.40;;;;;;6211816;23;20558;-80
2022/11/30 10:27:13;;;;;;;3.47;1.90;;;8.20;90.30;;;;;;6210907;23;20163;-80
2022/11/30 10:29:49;;;;;;;4.30;2.50;;;8.20;90.40;;;;;;6214202;23;20155;-79
2022/11/30 10:32:21;;;;;;;5.37;2.63;;;8.20;90.40;;;;;;6211222;23;20155;-81
2022/11/30 10:34:53;;;;;;;5.23;2.63;;;8.20;90.30;;;;;;6211653;23;20161;-79
2022/11/30 10:37:27;;;;;;;4.27;1.97;;;8.20;90.40;;;;;;6213432;23;20159;-77
2022/11/30 10:40:00;;;;;;;4.57;2.60;;;8.10;90.20;;;;;;6213453;23;20194;-79
2022/11/30 10:42:34;;;;;;;4.20;2.37;;;8.20;90.40;;;;;;6214092;23;20453;-79
2022/11/30 10:45:08;;;;;;;4.17;2.03;;;8.20;90.50;;;;;;6212093;23;20490;-78
2022/11/30 10:47:43;;;;;;;4.60;2.40;;;8.20;90.60;;;;;;6213456;23;20160;-79
2022/11/30 10:50:15;;;;;;;6.13;2.83;;;8.20;90.40;;;;;;6212813;23;20217;-79
2022/11/30 10:52:51;;;;;;;3.83;2.33;;;8.20;90.30;;;;;;6215161;23;20528;-78
2022/11/30 10:55:22;;;;;;;3.93;1.80;;;8.20;90.10;;;;;;6215034;23;20301;-76
2022/11/30 10:57:55;;;;;;;3.23;1.80;;;8.20;90.10;;;;;;6213477;23;20164;-78
2022/11/30 11:00:25;;;;;;;5.23;2.60;;;8.20;90.00;;;;;;6214875;23;20549;-80
2022/11/30 11:02:53;;;;;;;5.57;2.37;;;8.20;90.10;;;;;;6216349;23;20198;-77
2022/11/30 11:05:23;;;;;;;6.27;2.43;;;8.20;90.00;;;;;;6214581;23;20176;-80
2022/11/30 11:07:57;;;;;;;5.60;2.53;;;8.30;90.20;;;;;;6215143;23;20632;-78
2022/11/30 11:10:36;;;;;;;4.53;2.53;;;8.30;90.20;;;;;;6214260;23;20166;-78
2022/11/30 11:13:05;;;;;;;5.07;2.50;;;8.30;90.30;;;;;;6215255;23;20213;-79
2022/11/30 11:15:35;;;;;;;4.77;2.47;;;8.40;90.20;;;;;;6216084;23;20175;-80
2022/11/30 11:18:22;;;;;;;6.57;2.80;;;8.40;90.20;;;;;;6216428;23;20155;-79
2022/11/30 11:21:02;;;;;;;4.53;2.63;;;8.40;90.20;;;;;;6215990;23;20163;-80
2022/11/30 11:23:36;;;;;;;5.33;2.50;;;8.40;90.10;;;;;;6214899;23;20210;-80
2022/11/30 11:26:05;;;;;;;5.40;2.60;;;8.40;90.10;;;;;;6214134;23;20302;-80
2022/11/30 11:28:36;;;;;;;5.00;3.10;;;8.40;90.10;;;;;;6213649;23;20449;-79
2022/11/30 11:31:18;;;;;;;5.13;2.67;;;8.40;90.20;;;;;;6213997;23;20249;-79
2022/11/30 11:33:52;;;;;;;5.00;2.87;;;8.30;90.00;;;;;;6214391;23;20596;-77
2022/11/30 11:36:27;;;;;;;6.17;3.50;;;8.40;90.10;;;;;;6214984;23;20170;-80
2022/11/30 11:38:56;;;;;;;4.57;2.77;;;8.40;90.10;;;;;;6214699;23;20159;-79
2022/11/30 11:41:28;;;;;;;5.65;3.17;;;8.50;90.20;;;;;;6213651;23;20399;-79
2022/11/30 11:44:01;;;;;;;5.77;3.07;;;8.40;90.30;;;;;;6214060;23;20175;-77
2022/11/30 11:46:33;;;;;;;5.07;2.63;;;8.40;90.30;;;;;;6213207;23;20585;-80
2022/11/30 11:49:04;;;;;;;6.30;3.07;;;8.40;90.30;;;;;;6214477;23;20234;-79
2022/11/30 11:51:34;;;;;;;5.20;3.10;;;8.50;90.40;;;;;;6214052;23;20159;-80
2022/11/30 11:54:11;;;;;;;6.03;3.10;;;8.50;90.50;;;;;;6215572;23;20159;-80
2022/11/30 11:56:40;;;;;;;6.73;3.40;;;8.50;90.50;;;;;;6213909;23;20194;-80
2022/11/30 11:59:17;;;;;;;7.03;3.63;;;8.60;90.50;;;;;;6210676;23;20248;-79
2022/11/30 12:02:00;;;;;;;9.83;3.57;;;8.60;90.50;;;;;;6212847;23;20166;-79
2022/11/30 12:04:45;;;;;;;7.33;3.37;;;8.60;90.40;;;;;;6212140;23;20182;-81
2022/11/30 12:07:23;;;;;;;6.85;3.28;;;8.60;90.30;;;;;;6213366;23;20498;-80
2022/11/30 12:10:04;;;;;;;6.87;3.23;;;8.60;90.30;;;;;;6213133;23;20160;-79
2022/11/30 12:12:53;;;;;;;5.20;2.90;;;8.70;90.20;;;;;;6204049;23;20213;-78
2022/11/30 12:15:28;;;;;;;6.70;2.80;;;8.60;89.80;;;;;;6209235;23;20179;-80
2022/11/30 12:18:07;;;;;;;7.47;3.70;;;8.60;90.00;;;;;;6210346;23;20166;-79
2022/11/30 12:20:54;;;;;;;5.33;3.07;;;8.60;90.20;;;;;;6210620;23;20473;-79
2022/11/30 12:23:43;;;;;;;8.77;3.63;;;8.70;90.40;;;;;;6212041;23;20232;-78
2022/11/30 12:26:19;;;;;;;6.50;3.23;;;8.70;90.30;;;;;;6211994;23;20203;-81
2022/11/30 12:29:16;;;;;;;12.27;3.00;;;8.70;90.00;;;;;;6211465;23;20627;-81
2022/11/30 12:32:02;;;;;;;8.00;3.83;;;8.70;90.00;;;;;;6211084;23;20152;-81
2022/11/30 12:34:50;;;;;;;6.50;3.37;;;8.70;89.70;;;;;;6212903;23;20155;-78
2022/11/30 12:37:29;;;;;;;5.23;3.13;;;8.70;89.80;;;;;;6212676;23;20159;-79
2022/11/30 12:40:08;;;;;;;8.27;3.53;;;8.70;89.70;;;;;;6210638;23;20680;-80
2022/11/30 12:42:43;;;;;;;7.57;4.40;;;8.70;89.80;;;;;;6211267;23;20229;-80
2022/11/30 12:45:19;;;;;;;3.97;2.50;;;8.80;90.00;;;;;;6210195;23;20229;-80
2022/11/30 12:47:56;;;;;;;5.57;2.80;;;8.70;89.70;;;;;;6211101;23;20159;-79
2022/11/30 12:50:41;;;;;;;6.00;2.90;;;8.80;89.70;;;;;;6211743;23;20536;-78
2022/11/30 12:53:18;;;;;;;5.97;2.80;;;8.80;89.70;;;;;;6212555;23;20456;-78
2022/11/30 12:55:53;;;;;;;5.27;2.80;;;8.80;89.60;;;;;;6209155;23;20159;-78
2022/11/30 12:58:32;;;;;;;3.20;2.20;;;8.80;89.40;;;;;;6210701;23;20163;-79
2022/11/30 13:01:17;;;;;;;4.70;2.60;;;8.70;89.00;;;;;;6211672;23;20156;-79
2022/11/30 13:03:55;;;;;;;4.27;2.00;;;8.60;88.50;;;;;;6212282;23;20488;-79
2022/11/30 13:06:29;;;;;;;3.27;1.93;;;8.60;88.90;;;;;;6211108;23;20588;-79
2022/11/30 13:09:02;;;;;;;4.17;2.37;;;8.60;88.90;;;;;;6211380;23;20538;-76
2022/11/30 13:11:38;;;;;;;4.87;2.20;;;8.60;89.00;;;;;;6210775;23;20209;-78
2022/11/30 13:14:13;;;;;;;5.70;2.63;;;8.60;88.50;;;;;;6209827;23;20159;-80
2022/11/30 13:16:43;;;;;;;4.30;2.33;;;8.60;89.70;;;;;;6210529;23;20609;-76
2022/11/30 13:19:29;;;;;;;4.50;2.63;;;8.60;89.10;;;;;;6213235;23;20175;-80
2022/11/30 13:22:06;;;;;;;6.67;2.60;;;8.70;89.20;;;;;;6211099;23;20159;-78